sensor_id;sensor_type;location;lat;lon;timestamp;temperature;humidity
14057;DHT22;7103;54.300;10.180;2023-10-09T00:02:11;10.40;72.00
14057;DHT22;7103;54.300;10.180;2023-10-09T00:04:39;10.30;73.70
14057;DHT22;7103;54.300;10.180;2023-10-09T00:07:10;10.30;78.90
14057;DHT22;7103;54.300;10.180;2023-10-09T00:09:38;10.30;94.50
14057;DHT22;7103;54.300;10.180;2023-10-09T00:12:19;10.30;99.90
14057;DHT22;7103;54.300;10.180;2023-10-09T00:14:51;10.30;99.90
14057;DHT22;7103;54.300;10.180;2023-10-09T00:17:34;10.30;99.90
14057;DHT22;7103;54.300;10.180;2023-10-09T00:20:01;10.30;99.90
14057;DHT22;7103;54.300;10.180;2023-10-09T00:22:44;10.30;99.90
14057;DHT22;7103;54.300;10.180;2023-10-09T00:25:13;10.20;99.90
14057;DHT22;7103;54.300;10.180;2023-10-09T00:27:50;10.20;99.90
14057;DHT22;7103;54.300;10.180;2023-10-09T00:30:19;10.20;99.90
14057;DHT22;7103;54.300;10.180;2023-10-09T00:32:48;10.10;99.90
14057;DHT22;7103;54.300;10.180;2023-10-09T00:35:38;10.10;99.90
14057;DHT22;7103;54.300;10.180;2023-10-09T00:38:06;10.10;99.90
14057;DHT22;7103;54.300;10.180;2023-10-09T00:40:49;10.00;99.90
14057;DHT22;7103;54.300;10.180;2023-10-09T00:43:52;10.10;99.90
14057;DHT22;7103;54.300;10.180;2023-10-09T00:46:21;10.10;99.90
14057;DHT22;7103;54.300;10.180;2023-10-09T00:48:52;10.10;99.90
14057;DHT22;7103;54.300;10.180;2023-10-09T00:51:19;10.20;99.90
14057;DHT22;7103;54.300;10.180;2023-10-09T00:56:21;10.10;99.90
14057;DHT22;7103;54.300;10.180;2023-10-09T00:59:05;10.10;99.90
14057;DHT22;7103;54.300;10.180;2023-10-09T01:01:36;10.20;99.90
14057;DHT22;7103;54.300;10.180;2023-10-09T01:04:07;10.20;99.90
14057;DHT22;7103;54.300;10.180;2023-10-09T01:06:40;10.30;99.90
14057;DHT22;7103;54.300;10.180;2023-10-09T01:09:12;10.20;99.90
14057;DHT22;7103;54.300;10.180;2023-10-09T01:11:41;10.20;99.90
14057;DHT22;7103;54.300;10.180;2023-10-09T01:14:26;10.10;99.90
14057;DHT22;7103;54.300;10.180;2023-10-09T01:16:53;10.10;99.90
14057;DHT22;7103;54.300;10.180;2023-10-09T01:19:21;10.10;99.90
14057;DHT22;7103;54.300;10.180;2023-10-09T01:21:52;9.90;99.90
14057;DHT22;7103;54.300;10.180;2023-10-09T01:24:20;9.80;99.90
14057;DHT22;7103;54.300;10.180;2023-10-09T01:26:47;9.80;99.90
14057;DHT22;7103;54.300;10.180;2023-10-09T01:29:17;9.90;99.90
14057;DHT22;7103;54.300;10.180;2023-10-09T01:31:47;9.80;99.90
14057;DHT22;7103;54.300;10.180;2023-10-09T01:34:31;9.90;99.90
14057;DHT22;7103;54.300;10.180;2023-10-09T01:37:10;9.90;99.90
14057;DHT22;7103;54.300;10.180;2023-10-09T01:39:54;9.80;99.90
14057;DHT22;7103;54.300;10.180;2023-10-09T01:42:40;9.90;99.90
14057;DHT22;7103;54.300;10.180;2023-10-09T01:45:12;10.00;99.90
14057;DHT22;7103;54.300;10.180;2023-10-09T01:47:54;10.00;99.90
14057;DHT22;7103;54.300;10.180;2023-10-09T01:50:22;9.90;99.90
14057;DHT22;7103;54.300;10.180;2023-10-09T01:52:58;9.90;99.90
14057;DHT22;7103;54.300;10.180;2023-10-09T01:55:30;9.90;99.90
14057;DHT22;7103;54.300;10.180;2023-10-09T01:58:16;9.90;99.90
14057;DHT22;7103;54.300;10.180;2023-10-09T02:00:49;9.90;99.90
14057;DHT22;7103;54.300;10.180;2023-10-09T02:03:22;9.90;99.90
14057;DHT22;7103;54.300;10.180;2023-10-09T02:06:01;9.90;99.90
14057;DHT22;7103;54.300;10.180;2023-10-09T02:08:30;9.90;99.90
14057;DHT22;7103;54.300;10.180;2023-10-09T02:11:02;9.80;99.90
14057;DHT22;7103;54.300;10.180;2023-10-09T02:13:30;9.90;99.90
14057;DHT22;7103;54.300;10.180;2023-10-09T02:16:02;10.00;99.90
14057;DHT22;7103;54.300;10.180;2023-10-09T02:18:42;9.90;99.90
14057;DHT22;7103;54.300;10.180;2023-10-09T02:21:23;9.90;99.90
14057;DHT22;7103;54.300;10.180;2023-10-09T02:24:14;9.80;99.90
14057;DHT22;7103;54.300;10.180;2023-10-09T02:26:57;9.90;99.90
14057;DHT22;7103;54.300;10.180;2023-10-09T02:29:24;9.90;99.90
14057;DHT22;7103;54.300;10.180;2023-10-09T02:31:54;10.00;99.90
14057;DHT22;7103;54.300;10.180;2023-10-09T02:34:28;10.10;99.90
14057;DHT22;7103;54.300;10.180;2023-10-09T02:36:56;9.90;99.90
14057;DHT22;7103;54.300;10.180;2023-10-09T02:39:33;9.90;99.90
14057;DHT22;7103;54.300;10.180;2023-10-09T02:42:14;9.90;99.90
14057;DHT22;7103;54.300;10.180;2023-10-09T02:44:45;9.90;99.90
14057;DHT22;7103;54.300;10.180;2023-10-09T02:47:26;9.90;99.90
14057;DHT22;7103;54.300;10.180;2023-10-09T02:50:15;9.90;99.90
14057;DHT22;7103;54.300;10.180;2023-10-09T02:52:54;10.00;99.90
14057;DHT22;7103;54.300;10.180;2023-10-09T02:55:28;9.90;99.90
14057;DHT22;7103;54.300;10.180;2023-10-09T02:58:05;9.90;99.90
14057;DHT22;7103;54.300;10.180;2023-10-09T03:00:37;9.80;99.90
14057;DHT22;7103;54.300;10.180;2023-10-09T03:03:04;9.80;99.90
14057;DHT22;7103;54.300;10.180;2023-10-09T03:05:40;9.90;99.90
14057;DHT22;7103;54.300;10.180;2023-10-09T03:08:13;9.90;99.90
14057;DHT22;7103;54.300;10.180;2023-10-09T03:10:41;9.80;99.90
14057;DHT22;7103;54.300;10.180;2023-10-09T03:13:14;9.80;99.90
14057;DHT22;7103;54.300;10.180;2023-10-09T03:15:46;9.70;99.90
14057;DHT22;7103;54.300;10.180;2023-10-09T03:18:17;9.70;99.90
14057;DHT22;7103;54.300;10.180;2023-10-09T03:20:48;9.70;99.90
14057;DHT22;7103;54.300;10.180;2023-10-09T03:23:21;9.70;99.90
14057;DHT22;7103;54.300;10.180;2023-10-09T03:25:48;9.80;99.90
14057;DHT22;7103;54.300;10.180;2023-10-09T03:28:23;9.80;99.90
14057;DHT22;7103;54.300;10.180;2023-10-09T03:30:54;9.70;99.90
14057;DHT22;7103;54.300;10.180;2023-10-09T03:33:30;9.70;99.90
14057;DHT22;7103;54.300;10.180;2023-10-09T03:36:03;9.80;99.90
14057;DHT22;7103;54.300;10.180;2023-10-09T03:38:39;9.70;99.90
14057;DHT22;7103;54.300;10.180;2023-10-09T03:41:15;9.70;99.90
14057;DHT22;7103;54.300;10.180;2023-10-09T03:43:45;9.70;99.90
14057;DHT22;7103;54.300;10.180;2023-10-09T03:46:15;9.70;99.90
14057;DHT22;7103;54.300;10.180;2023-10-09T03:48:58;9.70;99.90
14057;DHT22;7103;54.300;10.180;2023-10-09T03:51:28;9.70;99.90
14057;DHT22;7103;54.300;10.180;2023-10-09T03:54:02;9.70;99.90
14057;DHT22;7103;54.300;10.180;2023-10-09T03:56:38;9.70;99.90
14057;DHT22;7103;54.300;10.180;2023-10-09T03:59:11;9.70;99.90
14057;DHT22;7103;54.300;10.180;2023-10-09T04:01:41;9.80;99.90
14057;DHT22;7103;54.300;10.180;2023-10-09T04:04:19;9.80;99.90
14057;DHT22;7103;54.300;10.180;2023-10-09T04:06:53;9.80;99.90
14057;DHT22;7103;54.300;10.180;2023-10-09T04:09:20;9.70;99.90
14057;DHT22;7103;54.300;10.180;2023-10-09T04:11:52;9.70;99.90
14057;DHT22;7103;54.300;10.180;2023-10-09T04:14:49;9.80;99.90
14057;DHT22;7103;54.300;10.180;2023-10-09T04:17:17;9.90;99.90
14057;DHT22;7103;54.300;10.180;2023-10-09T04:19:56;9.90;99.90
14057;DHT22;7103;54.300;10.180;2023-10-09T04:22:42;9.90;99.90
14057;DHT22;7103;54.300;10.180;2023-10-09T04:25:18;9.90;99.90
14057;DHT22;7103;54.300;10.180;2023-10-09T04:27:59;10.10;99.90
14057;DHT22;7103;54.300;10.180;2023-10-09T04:30:41;10.00;99.90
14057;DHT22;7103;54.300;10.180;2023-10-09T04:33:13;10.00;99.90
14057;DHT22;7103;54.300;10.180;2023-10-09T04:36:08;10.10;99.90
14057;DHT22;7103;54.300;10.180;2023-10-09T04:38:49;10.10;99.90
14057;DHT22;7103;54.300;10.180;2023-10-09T04:41:31;10.10;99.90
14057;DHT22;7103;54.300;10.180;2023-10-09T04:44:10;10.10;99.90
14057;DHT22;7103;54.300;10.180;2023-10-09T04:46:50;10.10;99.90
14057;DHT22;7103;54.300;10.180;2023-10-09T04:49:41;10.10;99.90
14057;DHT22;7103;54.300;10.180;2023-10-09T04:52:23;10.10;99.90
14057;DHT22;7103;54.300;10.180;2023-10-09T04:54:57;10.20;99.90
14057;DHT22;7103;54.300;10.180;2023-10-09T04:57:37;10.10;99.90
14057;DHT22;7103;54.300;10.180;2023-10-09T05:00:16;10.10;99.90
14057;DHT22;7103;54.300;10.180;2023-10-09T05:02:55;10.10;99.90
14057;DHT22;7103;54.300;10.180;2023-10-09T05:05:27;10.10;99.90
14057;DHT22;7103;54.300;10.180;2023-10-09T05:08:16;10.10;99.90
14057;DHT22;7103;54.300;10.180;2023-10-09T05:10:48;10.10;99.90
14057;DHT22;7103;54.300;10.180;2023-10-09T05:13:46;10.10;99.90
14057;DHT22;7103;54.300;10.180;2023-10-09T05:16:24;10.10;99.90
14057;DHT22;7103;54.300;10.180;2023-10-09T05:19:00;10.10;99.90
14057;DHT22;7103;54.300;10.180;2023-10-09T05:21:35;10.30;99.90
14057;DHT22;7103;54.300;10.180;2023-10-09T05:24:04;10.10;99.90
14057;DHT22;7103;54.300;10.180;2023-10-09T05:26:43;10.10;99.90
14057;DHT22;7103;54.300;10.180;2023-10-09T05:29:24;10.10;99.90
14057;DHT22;7103;54.300;10.180;2023-10-09T05:32:05;10.10;99.90
14057;DHT22;7103;54.300;10.180;2023-10-09T05:34:42;10.00;99.90
14057;DHT22;7103;54.300;10.180;2023-10-09T05:37:30;10.00;99.90
14057;DHT22;7103;54.300;10.180;2023-10-09T05:40:10;10.10;99.90
14057;DHT22;7103;54.300;10.180;2023-10-09T05:42:37;10.10;99.90
14057;DHT22;7103;54.300;10.180;2023-10-09T05:45:05;10.10;99.90
14057;DHT22;7103;54.300;10.180;2023-10-09T05:47:55;10.20;99.90
14057;DHT22;7103;54.300;10.180;2023-10-09T05:50:26;10.10;99.90
14057;DHT22;7103;54.300;10.180;2023-10-09T05:52:55;10.10;99.90
14057;DHT22;7103;54.300;10.180;2023-10-09T05:55:24;10.10;99.90
14057;DHT22;7103;54.300;10.180;2023-10-09T05:57:52;10.20;99.90
14057;DHT22;7103;54.300;10.180;2023-10-09T06:00:37;10.20;99.90
14057;DHT22;7103;54.300;10.180;2023-10-09T06:03:23;10.20;99.90
14057;DHT22;7103;54.300;10.180;2023-10-09T06:05:55;10.30;99.90
14057;DHT22;7103;54.300;10.180;2023-10-09T06:08:30;10.30;99.90
14057;DHT22;7103;54.300;10.180;2023-10-09T06:11:10;10.30;99.90
14057;DHT22;7103;54.300;10.180;2023-10-09T06:13:57;10.30;99.90
14057;DHT22;7103;54.300;10.180;2023-10-09T06:16:34;10.50;99.90
14057;DHT22;7103;54.300;10.180;2023-10-09T06:19:14;10.30;99.90
14057;DHT22;7103;54.300;10.180;2023-10-09T06:21:47;10.30;99.90
14057;DHT22;7103;54.300;10.180;2023-10-09T06:24:20;10.50;99.90
14057;DHT22;7103;54.300;10.180;2023-10-09T06:26:50;10.50;99.90
14057;DHT22;7103;54.300;10.180;2023-10-09T06:29:21;10.50;99.90
14057;DHT22;7103;54.300;10.180;2023-10-09T06:32:05;10.50;99.90
14057;DHT22;7103;54.300;10.180;2023-10-09T06:35:01;10.50;99.90
14057;DHT22;7103;54.300;10.180;2023-10-09T06:37:49;10.50;99.90
14057;DHT22;7103;54.300;10.180;2023-10-09T06:40:37;10.70;99.90
14057;DHT22;7103;54.300;10.180;2023-10-09T06:43:23;10.70;99.90
14057;DHT22;7103;54.300;10.180;2023-10-09T06:45:52;10.60;99.90
14057;DHT22;7103;54.300;10.180;2023-10-09T06:48:27;10.70;99.90
14057;DHT22;7103;54.300;10.180;2023-10-09T06:51:10;10.70;99.90
14057;DHT22;7103;54.300;10.180;2023-10-09T06:53:54;10.70;99.90
14057;DHT22;7103;54.300;10.180;2023-10-09T06:56:26;10.80;99.90
14057;DHT22;7103;54.300;10.180;2023-10-09T06:59:03;10.80;99.90
14057;DHT22;7103;54.300;10.180;2023-10-09T07:01:31;10.80;99.90
14057;DHT22;7103;54.300;10.180;2023-10-09T07:04:13;10.80;99.90
14057;DHT22;7103;54.300;10.180;2023-10-09T07:06:48;10.80;99.90
14057;DHT22;7103;54.300;10.180;2023-10-09T07:09:15;10.80;99.90
14057;DHT22;7103;54.300;10.180;2023-10-09T07:11:49;10.90;99.90
14057;DHT22;7103;54.300;10.180;2023-10-09T07:14:18;10.80;99.90
14057;DHT22;7103;54.300;10.180;2023-10-09T07:17:05;10.80;99.90
14057;DHT22;7103;54.300;10.180;2023-10-09T07:19:51;10.80;99.90
14057;DHT22;7103;54.300;10.180;2023-10-09T07:22:22;10.80;99.90
14057;DHT22;7103;54.300;10.180;2023-10-09T07:27:27;10.90;99.90
14057;DHT22;7103;54.300;10.180;2023-10-09T07:30:20;10.80;99.90
14057;DHT22;7103;54.300;10.180;2023-10-09T07:33:07;11.00;99.90
14057;DHT22;7103;54.300;10.180;2023-10-09T07:35:42;10.90;99.90
14057;DHT22;7103;54.300;10.180;2023-10-09T07:38:10;11.00;99.90
14057;DHT22;7103;54.300;10.180;2023-10-09T07:40:38;11.00;99.90
14057;DHT22;7103;54.300;10.180;2023-10-09T07:43:34;11.00;99.90
14057;DHT22;7103;54.300;10.180;2023-10-09T07:46:22;11.00;99.90
14057;DHT22;7103;54.300;10.180;2023-10-09T07:49:22;11.10;99.90
14057;DHT22;7103;54.300;10.180;2023-10-09T07:52:00;11.10;99.90
14057;DHT22;7103;54.300;10.180;2023-10-09T07:54:41;11.10;99.90
14057;DHT22;7103;54.300;10.180;2023-10-09T07:57:21;11.10;99.90
14057;DHT22;7103;54.300;10.180;2023-10-09T07:59:56;11.20;99.90
14057;DHT22;7103;54.300;10.180;2023-10-09T08:02:39;11.20;99.90
14057;DHT22;7103;54.300;10.180;2023-10-09T08:05:07;11.20;99.90
14057;DHT22;7103;54.300;10.180;2023-10-09T08:07:48;11.20;99.90
14057;DHT22;7103;54.300;10.180;2023-10-09T08:10:48;11.20;99.90
14057;DHT22;7103;54.300;10.180;2023-10-09T08:13:34;11.30;99.90
14057;DHT22;7103;54.300;10.180;2023-10-09T08:16:30;11.20;99.90
14057;DHT22;7103;54.300;10.180;2023-10-09T08:19:04;11.30;99.90
14057;DHT22;7103;54.300;10.180;2023-10-09T08:21:50;11.40;99.90
14057;DHT22;7103;54.300;10.180;2023-10-09T08:24:37;11.50;99.90
14057;DHT22;7103;54.300;10.180;2023-10-09T08:27:13;11.60;99.90
14057;DHT22;7103;54.300;10.180;2023-10-09T08:29:59;11.80;99.90
14057;DHT22;7103;54.300;10.180;2023-10-09T08:32:48;11.80;99.90
14057;DHT22;7103;54.300;10.180;2023-10-09T08:35:38;11.80;99.90
14057;DHT22;7103;54.300;10.180;2023-10-09T08:38:16;11.80;99.90
14057;DHT22;7103;54.300;10.180;2023-10-09T08:40:51;11.80;99.90
14057;DHT22;7103;54.300;10.180;2023-10-09T08:43:25;11.80;99.90
14057;DHT22;7103;54.300;10.180;2023-10-09T08:46:00;11.80;99.90
14057;DHT22;7103;54.300;10.180;2023-10-09T08:48:30;11.90;99.90
14057;DHT22;7103;54.300;10.180;2023-10-09T08:50:57;11.80;99.90
14057;DHT22;7103;54.300;10.180;2023-10-09T08:53:25;11.80;99.90
14057;DHT22;7103;54.300;10.180;2023-10-09T08:55:57;11.70;99.90
14057;DHT22;7103;54.300;10.180;2023-10-09T08:58:25;11.80;99.90
14057;DHT22;7103;54.300;10.180;2023-10-09T09:00:53;11.70;99.90
14057;DHT22;7103;54.300;10.180;2023-10-09T09:03:22;11.80;99.90
14057;DHT22;7103;54.300;10.180;2023-10-09T09:05:59;11.80;99.90
14057;DHT22;7103;54.300;10.180;2023-10-09T09:08:31;11.90;99.90
14057;DHT22;7103;54.300;10.180;2023-10-09T09:11:10;11.80;99.90
14057;DHT22;7103;54.300;10.180;2023-10-09T09:13:45;11.70;99.90
14057;DHT22;7103;54.300;10.180;2023-10-09T09:16:23;11.70;99.90
14057;DHT22;7103;54.300;10.180;2023-10-09T09:19:03;11.80;99.90
14057;DHT22;7103;54.300;10.180;2023-10-09T09:21:41;11.80;99.90
14057;DHT22;7103;54.300;10.180;2023-10-09T09:24:13;11.70;99.90
14057;DHT22;7103;54.300;10.180;2023-10-09T09:26:43;11.70;99.90
14057;DHT22;7103;54.300;10.180;2023-10-09T09:29:15;11.60;99.90
14057;DHT22;7103;54.300;10.180;2023-10-09T09:31:55;11.50;99.90
14057;DHT22;7103;54.300;10.180;2023-10-09T09:34:24;11.40;99.90
14057;DHT22;7103;54.300;10.180;2023-10-09T09:36:58;11.40;99.90
14057;DHT22;7103;54.300;10.180;2023-10-09T09:39:28;11.50;99.90
14057;DHT22;7103;54.300;10.180;2023-10-09T09:42:08;11.60;99.90
14057;DHT22;7103;54.300;10.180;2023-10-09T09:44:42;11.50;99.90
14057;DHT22;7103;54.300;10.180;2023-10-09T09:47:14;11.60;99.90
14057;DHT22;7103;54.300;10.180;2023-10-09T09:49:51;11.70;99.90
14057;DHT22;7103;54.300;10.180;2023-10-09T09:52:31;11.70;99.90
14057;DHT22;7103;54.300;10.180;2023-10-09T09:55:09;11.90;99.90
14057;DHT22;7103;54.300;10.180;2023-10-09T09:57:49;11.80;99.90
14057;DHT22;7103;54.300;10.180;2023-10-09T10:00:22;11.90;99.90
14057;DHT22;7103;54.300;10.180;2023-10-09T10:03:06;12.00;99.90
14057;DHT22;7103;54.300;10.180;2023-10-09T10:05:34;12.10;99.90
14057;DHT22;7103;54.300;10.180;2023-10-09T10:08:02;12.10;99.90
14057;DHT22;7103;54.300;10.180;2023-10-09T10:10:40;12.10;99.90
14057;DHT22;7103;54.300;10.180;2023-10-09T10:16:16;12.10;99.90
14057;DHT22;7103;54.300;10.180;2023-10-09T10:18:59;12.20;99.90
14057;DHT22;7103;54.300;10.180;2023-10-09T10:21:48;12.20;99.90
14057;DHT22;7103;54.300;10.180;2023-10-09T10:32:59;12.40;99.90
14057;DHT22;7103;54.300;10.180;2023-10-09T10:35:45;12.40;99.90
14057;DHT22;7103;54.300;10.180;2023-10-09T10:38:42;12.40;99.90
14057;DHT22;7103;54.300;10.180;2023-10-09T10:41:17;12.30;99.90
14057;DHT22;7103;54.300;10.180;2023-10-09T10:43:46;12.40;99.90
14057;DHT22;7103;54.300;10.180;2023-10-09T10:46:21;12.40;99.90
14057;DHT22;7103;54.300;10.180;2023-10-09T10:49:00;12.40;99.90
14057;DHT22;7103;54.300;10.180;2023-10-09T10:51:42;12.30;99.90
14057;DHT22;7103;54.300;10.180;2023-10-09T10:54:24;12.20;99.90
14057;DHT22;7103;54.300;10.180;2023-10-09T10:57:00;12.20;99.90
14057;DHT22;7103;54.300;10.180;2023-10-09T10:59:32;12.20;99.90
14057;DHT22;7103;54.300;10.180;2023-10-09T11:02:12;12.30;99.90
14057;DHT22;7103;54.300;10.180;2023-10-09T11:04:39;12.20;99.90
14057;DHT22;7103;54.300;10.180;2023-10-09T11:07:09;12.20;99.90
14057;DHT22;7103;54.300;10.180;2023-10-09T11:09:53;12.20;99.90
14057;DHT22;7103;54.300;10.180;2023-10-09T11:12:42;12.10;99.90
14057;DHT22;7103;54.300;10.180;2023-10-09T11:15:15;12.20;99.90
14057;DHT22;7103;54.300;10.180;2023-10-09T11:18:06;12.20;99.90
14057;DHT22;7103;54.300;10.180;2023-10-09T11:20:51;12.40;99.90
14057;DHT22;7103;54.300;10.180;2023-10-09T11:23:34;12.50;99.90
14057;DHT22;7103;54.300;10.180;2023-10-09T11:26:07;12.50;99.90
14057;DHT22;7103;54.300;10.180;2023-10-09T11:29:09;12.60;99.90
14057;DHT22;7103;54.300;10.180;2023-10-09T11:34:28;12.60;99.90
14057;DHT22;7103;54.300;10.180;2023-10-09T11:39:39;12.60;99.90
14057;DHT22;7103;54.300;10.180;2023-10-09T11:42:28;12.70;99.90
14057;DHT22;7103;54.300;10.180;2023-10-09T11:45:25;12.70;99.90
14057;DHT22;7103;54.300;10.180;2023-10-09T11:48:15;12.70;99.90
14057;DHT22;7103;54.300;10.180;2023-10-09T11:50:52;12.70;99.90
14057;DHT22;7103;54.300;10.180;2023-10-09T11:53:47;12.70;99.90
14057;DHT22;7103;54.300;10.180;2023-10-09T11:56:24;12.70;99.90
14057;DHT22;7103;54.300;10.180;2023-10-09T11:58:55;12.60;99.90
14057;DHT22;7103;54.300;10.180;2023-10-09T12:01:28;12.60;99.90
14057;DHT22;7103;54.300;10.180;2023-10-09T12:04:02;12.60;99.90
14057;DHT22;7103;54.300;10.180;2023-10-09T12:06:38;12.60;99.90
14057;DHT22;7103;54.300;10.180;2023-10-09T12:09:12;12.60;99.90
14057;DHT22;7103;54.300;10.180;2023-10-09T12:12:02;12.70;99.90
14057;DHT22;7103;54.300;10.180;2023-10-09T12:14:31;12.60;99.90
14057;DHT22;7103;54.300;10.180;2023-10-09T12:17:09;12.60;99.90
14057;DHT22;7103;54.300;10.180;2023-10-09T12:19:38;12.60;99.90
14057;DHT22;7103;54.300;10.180;2023-10-09T12:22:19;12.60;99.90
14057;DHT22;7103;54.300;10.180;2023-10-09T12:24:48;12.50;99.90
14057;DHT22;7103;54.300;10.180;2023-10-09T12:27:20;12.50;99.90
14057;DHT22;7103;54.300;10.180;2023-10-09T12:29:48;12.50;99.90
14057;DHT22;7103;54.300;10.180;2023-10-09T12:32:19;12.60;99.90
14057;DHT22;7103;54.300;10.180;2023-10-09T12:34:47;12.60;99.90
14057;DHT22;7103;54.300;10.180;2023-10-09T12:37:17;12.70;99.90
14057;DHT22;7103;54.300;10.180;2023-10-09T12:39:47;12.80;99.90
14057;DHT22;7103;54.300;10.180;2023-10-09T12:42:15;12.90;99.90
14057;DHT22;7103;54.300;10.180;2023-10-09T12:44:44;12.90;99.90
14057;DHT22;7103;54.300;10.180;2023-10-09T12:47:11;13.00;99.90
14057;DHT22;7103;54.300;10.180;2023-10-09T12:49:39;13.10;99.90
14057;DHT22;7103;54.300;10.180;2023-10-09T12:52:08;13.10;99.90
14057;DHT22;7103;54.300;10.180;2023-10-09T12:54:45;13.10;99.90
14057;DHT22;7103;54.300;10.180;2023-10-09T12:57:14;13.10;99.90
14057;DHT22;7103;54.300;10.180;2023-10-09T12:59:42;13.10;99.90
14057;DHT22;7103;54.300;10.180;2023-10-09T13:02:15;13.20;99.90
14057;DHT22;7103;54.300;10.180;2023-10-09T13:04:58;13.10;99.90
14057;DHT22;7103;54.300;10.180;2023-10-09T13:07:27;13.10;99.90
14057;DHT22;7103;54.300;10.180;2023-10-09T13:09:59;13.10;99.90
14057;DHT22;7103;54.300;10.180;2023-10-09T13:12:36;13.10;99.90
14057;DHT22;7103;54.300;10.180;2023-10-09T13:15:11;13.20;99.90
14057;DHT22;7103;54.300;10.180;2023-10-09T13:17:44;13.20;99.90
14057;DHT22;7103;54.300;10.180;2023-10-09T13:20:12;13.20;99.90
14057;DHT22;7103;54.300;10.180;2023-10-09T13:22:43;13.20;99.90
14057;DHT22;7103;54.300;10.180;2023-10-09T13:25:12;13.20;99.90
14057;DHT22;7103;54.300;10.180;2023-10-09T13:28:06;13.20;99.90
14057;DHT22;7103;54.300;10.180;2023-10-09T13:30:38;13.30;99.90
14057;DHT22;7103;54.300;10.180;2023-10-09T13:33:09;13.20;99.90
14057;DHT22;7103;54.300;10.180;2023-10-09T13:35:44;13.20;99.90
14057;DHT22;7103;54.300;10.180;2023-10-09T13:38:17;13.30;99.90
14057;DHT22;7103;54.300;10.180;2023-10-09T13:40:44;13.20;99.90
14057;DHT22;7103;54.300;10.180;2023-10-09T13:43:11;13.20;99.90
14057;DHT22;7103;54.300;10.180;2023-10-09T13:45:44;13.20;99.90
14057;DHT22;7103;54.300;10.180;2023-10-09T13:48:17;13.30;99.90
14057;DHT22;7103;54.300;10.180;2023-10-09T13:50:44;13.30;99.90
14057;DHT22;7103;54.300;10.180;2023-10-09T13:53:14;13.30;99.90
14057;DHT22;7103;54.300;10.180;2023-10-09T13:55:54;13.30;99.90
14057;DHT22;7103;54.300;10.180;2023-10-09T13:58:23;13.30;99.90
14057;DHT22;7103;54.300;10.180;2023-10-09T14:00:50;13.30;99.90
14057;DHT22;7103;54.300;10.180;2023-10-09T14:03:20;13.30;99.90
14057;DHT22;7103;54.300;10.180;2023-10-09T14:05:51;13.40;99.90
14057;DHT22;7103;54.300;10.180;2023-10-09T14:08:23;13.30;99.90
14057;DHT22;7103;54.300;10.180;2023-10-09T14:10:52;13.20;99.90
14057;DHT22;7103;54.300;10.180;2023-10-09T14:13:21;13.20;99.90
14057;DHT22;7103;54.300;10.180;2023-10-09T14:15:59;13.20;99.90
14057;DHT22;7103;54.300;10.180;2023-10-09T14:18:34;13.30;99.90
14057;DHT22;7103;54.300;10.180;2023-10-09T14:21:04;13.20;99.90
14057;DHT22;7103;54.300;10.180;2023-10-09T14:23:34;13.20;99.90
14057;DHT22;7103;54.300;10.180;2023-10-09T14:26:04;13.20;99.90
14057;DHT22;7103;54.300;10.180;2023-10-09T14:28:35;13.20;99.90
14057;DHT22;7103;54.300;10.180;2023-10-09T14:31:04;13.10;99.90
14057;DHT22;7103;54.300;10.180;2023-10-09T14:33:31;13.10;99.90
14057;DHT22;7103;54.300;10.180;2023-10-09T14:36:04;13.00;99.90
14057;DHT22;7103;54.300;10.180;2023-10-09T14:38:33;13.10;99.90
14057;DHT22;7103;54.300;10.180;2023-10-09T14:41:06;13.10;99.90
14057;DHT22;7103;54.300;10.180;2023-10-09T14:43:39;13.10;99.90
14057;DHT22;7103;54.300;10.180;2023-10-09T14:46:06;13.00;99.90
14057;DHT22;7103;54.300;10.180;2023-10-09T14:48:39;13.10;99.90
14057;DHT22;7103;54.300;10.180;2023-10-09T14:51:09;13.00;99.90
14057;DHT22;7103;54.300;10.180;2023-10-09T14:53:37;13.00;99.90
14057;DHT22;7103;54.300;10.180;2023-10-09T14:56:04;13.10;99.90
14057;DHT22;7103;54.300;10.180;2023-10-09T14:58:35;13.10;99.90
14057;DHT22;7103;54.300;10.180;2023-10-09T15:01:10;13.00;99.90
14057;DHT22;7103;54.300;10.180;2023-10-09T15:03:39;13.00;99.90
14057;DHT22;7103;54.300;10.180;2023-10-09T15:06:08;13.00;99.90
14057;DHT22;7103;54.300;10.180;2023-10-09T15:08:38;13.10;99.90
14057;DHT22;7103;54.300;10.180;2023-10-09T15:11:05;13.00;99.90
14057;DHT22;7103;54.300;10.180;2023-10-09T15:13:33;13.00;99.90
14057;DHT22;7103;54.300;10.180;2023-10-09T15:16:01;13.00;99.90
14057;DHT22;7103;54.300;10.180;2023-10-09T15:18:30;13.00;99.90
14057;DHT22;7103;54.300;10.180;2023-10-09T15:21:00;13.00;99.90
14057;DHT22;7103;54.300;10.180;2023-10-09T15:23:27;13.00;99.90
14057;DHT22;7103;54.300;10.180;2023-10-09T15:25:54;12.90;99.90
14057;DHT22;7103;54.300;10.180;2023-10-09T15:28:22;12.90;99.90
14057;DHT22;7103;54.300;10.180;2023-10-09T15:30:50;12.90;99.90
14057;DHT22;7103;54.300;10.180;2023-10-09T15:33:17;12.80;99.90
14057;DHT22;7103;54.300;10.180;2023-10-09T15:35:48;12.80;99.90
14057;DHT22;7103;54.300;10.180;2023-10-09T15:38:17;12.80;1.00
14057;DHT22;7103;54.300;10.180;2023-10-09T15:40:46;12.90;1.00
14057;DHT22;7103;54.300;10.180;2023-10-09T15:43:14;12.80;1.00
14057;DHT22;7103;54.300;10.180;2023-10-09T15:45:50;12.80;1.00
14057;DHT22;7103;54.300;10.180;2023-10-09T15:48:17;12.90;1.00
14057;DHT22;7103;54.300;10.180;2023-10-09T15:50:48;12.80;1.00
14057;DHT22;7103;54.300;10.180;2023-10-09T15:53:16;12.80;1.00
14057;DHT22;7103;54.300;10.180;2023-10-09T15:55:46;12.80;1.00
14057;DHT22;7103;54.300;10.180;2023-10-09T15:58:13;12.80;1.00
14057;DHT22;7103;54.300;10.180;2023-10-09T16:00:44;12.80;1.00
14057;DHT22;7103;54.300;10.180;2023-10-09T16:03:12;12.70;1.00
14057;DHT22;7103;54.300;10.180;2023-10-09T16:05:41;12.70;1.00
14057;DHT22;7103;54.300;10.180;2023-10-09T16:08:08;12.70;1.00
14057;DHT22;7103;54.300;10.180;2023-10-09T16:10:36;12.80;1.00
14057;DHT22;7103;54.300;10.180;2023-10-09T16:13:03;12.80;1.00
14057;DHT22;7103;54.300;10.180;2023-10-09T16:15:31;12.80;1.00
14057;DHT22;7103;54.300;10.180;2023-10-09T16:17:59;12.80;1.00
14057;DHT22;7103;54.300;10.180;2023-10-09T16:20:33;12.80;1.00
14057;DHT22;7103;54.300;10.180;2023-10-09T16:23:00;12.80;1.00
14057;DHT22;7103;54.300;10.180;2023-10-09T16:25:34;12.70;1.00
14057;DHT22;7103;54.300;10.180;2023-10-09T16:28:02;12.70;1.00
14057;DHT22;7103;54.300;10.180;2023-10-09T16:30:29;12.60;1.00
14057;DHT22;7103;54.300;10.180;2023-10-09T16:32:56;12.70;1.00
14057;DHT22;7103;54.300;10.180;2023-10-09T16:35:25;12.80;1.00
14057;DHT22;7103;54.300;10.180;2023-10-09T16:37:52;12.70;1.00
14057;DHT22;7103;54.300;10.180;2023-10-09T16:40:21;12.70;1.00
14057;DHT22;7103;54.300;10.180;2023-10-09T16:42:49;12.70;1.00
14057;DHT22;7103;54.300;10.180;2023-10-09T16:45:16;12.70;1.00
14057;DHT22;7103;54.300;10.180;2023-10-09T16:47:48;12.70;1.00